sensor_id;sensor_type;location;lat;lon;timestamp;pressure;altitude;pressure_sealevel;temperature;humidity
3142;BME280;1581;51.568;6.998;2023-02-26T00:01:46;100997.59;;;2.79;100.00
3142;BME280;1581;51.568;6.998;2023-02-26T00:04:17;101000.25;;;2.88;100.00
3142;BME280;1581;51.568;6.998;2023-02-26T00:06:45;100998.69;;;2.86;100.00
3142;BME280;1581;51.568;6.998;2023-02-26T00:09:19;101009.88;;;3.08;100.00
3142;BME280;1581;51.568;6.998;2023-02-26T00:11:47;101001.22;;;2.87;100.00
3142;BME280;1581;51.568;6.998;2023-02-26T00:14:16;101019.44;;;3.09;100.00
3142;BME280;1581;51.568;6.998;2023-02-26T00:16:49;101019.09;;;2.84;100.00
3142;BME280;1581;51.568;6.998;2023-02-26T00:19:18;101014.13;;;3.00;100.00
3142;BME280;1581;51.568;6.998;2023-02-26T00:21:47;101020.66;;;3.05;100.00
3142;BME280;1581;51.568;6.998;2023-02-26T00:24:14;101009.28;;;3.05;100.00
3142;BME280;1581;51.568;6.998;2023-02-26T00:26:42;101015.16;;;3.08;100.00
3142;BME280;1581;51.568;6.998;2023-02-26T00:29:10;101020.72;;;3.24;100.00
3142;BME280;1581;51.568;6.998;2023-02-26T00:31:39;101018.53;;;3.29;100.00
3142;BME280;1581;51.568;6.998;2023-02-26T00:34:11;101011.56;;;3.19;100.00
3142;BME280;1581;51.568;6.998;2023-02-26T00:36:45;101021.78;;;3.12;100.00
3142;BME280;1581;51.568;6.998;2023-02-26T00:39:33;101029.97;;;3.19;100.00
3142;BME280;1581;51.568;6.998;2023-02-26T00:42:03;101034.53;;;3.17;100.00
3142;BME280;1581;51.568;6.998;2023-02-26T00:44:32;101040.66;;;3.17;100.00
3142;BME280;1581;51.568;6.998;2023-02-26T00:47:07;101041.38;;;3.29;100.00
3142;BME280;1581;51.568;6.998;2023-02-26T00:49:52;101040.25;;;3.22;100.00
3142;BME280;1581;51.568;6.998;2023-02-26T00:52:31;101042.75;;;3.23;100.00
3142;BME280;1581;51.568;6.998;2023-02-26T00:55:00;101044.09;;;3.08;100.00
3142;BME280;1581;51.568;6.998;2023-02-26T00:57:28;101046.63;;;3.19;100.00
3142;BME280;1581;51.568;6.998;2023-02-26T00:59:56;101048.16;;;3.22;100.00
3142;BME280;1581;51.568;6.998;2023-02-26T01:02:24;101048.72;;;3.25;100.00
3142;BME280;1581;51.568;6.998;2023-02-26T01:04:54;101052.91;;;3.37;100.00
3142;BME280;1581;51.568;6.998;2023-02-26T01:07:23;101048.47;;;3.28;100.00
3142;BME280;1581;51.568;6.998;2023-02-26T01:09:51;101046.94;;;3.44;100.00
3142;BME280;1581;51.568;6.998;2023-02-26T01:12:20;101048.75;;;3.44;100.00
3142;BME280;1581;51.568;6.998;2023-02-26T01:14:49;101044.00;;;3.29;100.00
3142;BME280;1581;51.568;6.998;2023-02-26T01:17:22;101054.41;;;2.91;100.00
3142;BME280;1581;51.568;6.998;2023-02-26T01:19:56;101056.25;;;2.70;100.00
3142;BME280;1581;51.568;6.998;2023-02-26T01:22:34;101063.06;;;2.72;100.00
3142;BME280;1581;51.568;6.998;2023-02-26T01:25:06;101061.78;;;2.67;100.00
3142;BME280;1581;51.568;6.998;2023-02-26T01:27:34;101061.66;;;2.68;100.00
3142;BME280;1581;51.568;6.998;2023-02-26T01:30:04;101072.03;;;2.70;100.00
3142;BME280;1581;51.568;6.998;2023-02-26T01:32:42;101064.22;;;2.59;100.00
3142;BME280;1581;51.568;6.998;2023-02-26T01:35:28;101070.13;;;2.72;100.00
3142;BME280;1581;51.568;6.998;2023-02-26T01:38:03;101075.47;;;2.61;100.00
3142;BME280;1581;51.568;6.998;2023-02-26T01:43:50;101083.31;;;2.81;100.00
3142;BME280;1581;51.568;6.998;2023-02-26T01:46:27;101079.38;;;2.66;100.00
3142;BME280;1581;51.568;6.998;2023-02-26T01:48:59;101080.53;;;2.53;100.00
3142;BME280;1581;51.568;6.998;2023-02-26T01:51:49;101079.22;;;2.68;100.00
3142;BME280;1581;51.568;6.998;2023-02-26T01:54:20;101085.94;;;2.81;100.00
3142;BME280;1581;51.568;6.998;2023-02-26T01:56:51;101092.88;;;2.32;100.00
3142;BME280;1581;51.568;6.998;2023-02-26T01:59:22;101084.78;;;2.45;100.00
3142;BME280;1581;51.568;6.998;2023-02-26T02:01:52;101088.69;;;2.50;100.00
3142;BME280;1581;51.568;6.998;2023-02-26T02:04:22;101087.25;;;2.66;100.00
3142;BME280;1581;51.568;6.998;2023-02-26T02:06:52;101088.72;;;2.80;100.00
3142;BME280;1581;51.568;6.998;2023-02-26T02:09:20;101092.94;;;2.92;99.36
3142;BME280;1581;51.568;6.998;2023-02-26T02:12:13;101106.22;;;2.90;98.29
3142;BME280;1581;51.568;6.998;2023-02-26T02:14:55;101101.16;;;2.78;97.55
3142;BME280;1581;51.568;6.998;2023-02-26T02:17:37;101101.72;;;2.81;96.96
3142;BME280;1581;51.568;6.998;2023-02-26T02:20:36;101107.34;;;2.67;96.81
3142;BME280;1581;51.568;6.998;2023-02-26T02:23:17;101103.78;;;2.78;96.48
3142;BME280;1581;51.568;6.998;2023-02-26T02:26:18;101104.19;;;2.73;96.14
3142;BME280;1581;51.568;6.998;2023-02-26T02:32:07;101117.97;;;2.66;96.64
3142;BME280;1581;51.568;6.998;2023-02-26T02:34:40;101108.09;;;2.79;96.18
3142;BME280;1581;51.568;6.998;2023-02-26T02:37:17;101117.34;;;2.73;96.65
3142;BME280;1581;51.568;6.998;2023-02-26T02:39:52;101120.19;;;2.61;98.14
3142;BME280;1581;51.568;6.998;2023-02-26T02:42:26;101112.09;;;2.53;98.80
3142;BME280;1581;51.568;6.998;2023-02-26T02:45:00;101125.59;;;2.59;98.03
3142;BME280;1581;51.568;6.998;2023-02-26T02:47:34;101128.22;;;2.59;99.16
3142;BME280;1581;51.568;6.998;2023-02-26T02:50:10;101133.59;;;2.58;99.91
3142;BME280;1581;51.568;6.998;2023-02-26T02:52:44;101137.56;;;2.53;100.00
3142;BME280;1581;51.568;6.998;2023-02-26T02:55:20;101141.38;;;2.28;100.00
3142;BME280;1581;51.568;6.998;2023-02-26T02:57:52;101139.56;;;2.08;100.00
3142;BME280;1581;51.568;6.998;2023-02-26T03:00:26;101147.38;;;1.99;100.00
3142;BME280;1581;51.568;6.998;2023-02-26T03:03:03;101148.56;;;1.95;100.00
3142;BME280;1581;51.568;6.998;2023-02-26T03:05:33;101144.88;;;1.86;100.00
3142;BME280;1581;51.568;6.998;2023-02-26T03:08:05;101143.69;;;1.90;100.00
3142;BME280;1581;51.568;6.998;2023-02-26T03:10:34;101151.00;;;2.18;100.00
3142;BME280;1581;51.568;6.998;2023-02-26T03:13:03;101154.66;;;1.95;100.00
3142;BME280;1581;51.568;6.998;2023-02-26T03:15:46;101153.94;;;2.04;100.00
3142;BME280;1581;51.568;6.998;2023-02-26T03:18:28;101158.28;;;1.83;100.00
3142;BME280;1581;51.568;6.998;2023-02-26T03:21:03;101161.34;;;1.99;100.00
3142;BME280;1581;51.568;6.998;2023-02-26T03:23:35;101169.84;;;1.81;100.00
3142;BME280;1581;51.568;6.998;2023-02-26T03:26:11;101167.59;;;1.76;100.00
3142;BME280;1581;51.568;6.998;2023-02-26T03:28:47;101167.84;;;1.84;100.00
3142;BME280;1581;51.568;6.998;2023-02-26T03:31:21;101183.94;;;1.80;100.00
3142;BME280;1581;51.568;6.998;2023-02-26T03:33:57;101177.63;;;1.93;100.00
3142;BME280;1581;51.568;6.998;2023-02-26T03:36:31;101181.22;;;1.81;100.00
3142;BME280;1581;51.568;6.998;2023-02-26T03:39:07;101182.91;;;1.61;100.00
3142;BME280;1581;51.568;6.998;2023-02-26T03:41:43;101185.78;;;1.58;100.00
3142;BME280;1581;51.568;6.998;2023-02-26T03:44:15;101182.41;;;1.77;100.00
3142;BME280;1581;51.568;6.998;2023-02-26T03:46:49;101195.88;;;1.95;100.00
3142;BME280;1581;51.568;6.998;2023-02-26T03:49:25;101202.69;;;1.75;100.00
3142;BME280;1581;51.568;6.998;2023-02-26T03:51:54;101208.19;;;1.94;100.00
3142;BME280;1581;51.568;6.998;2023-02-26T03:54:27;101209.63;;;1.87;100.00
3142;BME280;1581;51.568;6.998;2023-02-26T03:56:56;101206.16;;;1.87;100.00
3142;BME280;1581;51.568;6.998;2023-02-26T03:59:24;101214.66;;;1.68;100.00
3142;BME280;1581;51.568;6.998;2023-02-26T04:01:58;101217.78;;;1.52;100.00
3142;BME280;1581;51.568;6.998;2023-02-26T04:04:33;101210.97;;;1.60;100.00
3142;BME280;1581;51.568;6.998;2023-02-26T04:07:02;101222.97;;;1.95;100.00
3142;BME280;1581;51.568;6.998;2023-02-26T04:09:30;101208.94;;;1.53;100.00
3142;BME280;1581;51.568;6.998;2023-02-26T04:11:58;101220.78;;;1.58;100.00
3142;BME280;1581;51.568;6.998;2023-02-26T04:14:25;101225.16;;;1.58;100.00
3142;BME280;1581;51.568;6.998;2023-02-26T04:16:53;101228.50;;;1.38;100.00
3142;BME280;1581;51.568;6.998;2023-02-26T04:19:21;101229.25;;;1.40;100.00
3142;BME280;1581;51.568;6.998;2023-02-26T04:21:50;101233.78;;;1.60;100.00
3142;BME280;1581;51.568;6.998;2023-02-26T04:24:17;101239.38;;;1.33;100.00
3142;BME280;1581;51.568;6.998;2023-02-26T04:26:45;101244.25;;;1.38;100.00
3142;BME280;1581;51.568;6.998;2023-02-26T04:29:13;101244.25;;;1.38;100.00
3142;BME280;1581;51.568;6.998;2023-02-26T04:31:41;101251.78;;;1.64;100.00
3142;BME280;1581;51.568;6.998;2023-02-26T04:34:09;101252.63;;;1.43;100.00
3142;BME280;1581;51.568;6.998;2023-02-26T04:36:36;101251.81;;;0.97;100.00
3142;BME280;1581;51.568;6.998;2023-02-26T04:39:05;101253.09;;;1.48;100.00
3142;BME280;1581;51.568;6.998;2023-02-26T04:41:35;101266.00;;;1.40;100.00
3142;BME280;1581;51.568;6.998;2023-02-26T04:44:04;101263.91;;;0.99;100.00
3142;BME280;1581;51.568;6.998;2023-02-26T04:46:32;101263.56;;;1.15;100.00
3142;BME280;1581;51.568;6.998;2023-02-26T04:49:00;101269.66;;;1.15;100.00
3142;BME280;1581;51.568;6.998;2023-02-26T04:51:28;101270.75;;;1.24;100.00
3142;BME280;1581;51.568;6.998;2023-02-26T04:53:55;101275.75;;;1.27;100.00
3142;BME280;1581;51.568;6.998;2023-02-26T04:56:25;101275.88;;;1.25;100.00
3142;BME280;1581;51.568;6.998;2023-02-26T04:58:53;101276.50;;;0.94;100.00
3142;BME280;1581;51.568;6.998;2023-02-26T05:01:21;101279.13;;;0.94;100.00
3142;BME280;1581;51.568;6.998;2023-02-26T05:03:48;101292.16;;;1.07;100.00
3142;BME280;1581;51.568;6.998;2023-02-26T05:06:16;101290.78;;;1.25;100.00
3142;BME280;1581;51.568;6.998;2023-02-26T05:08:44;101296.91;;;1.47;100.00
3142;BME280;1581;51.568;6.998;2023-02-26T05:11:11;101297.72;;;1.37;100.00
3142;BME280;1581;51.568;6.998;2023-02-26T05:13:41;101303.13;;;1.57;100.00
3142;BME280;1581;51.568;6.998;2023-02-26T05:16:08;101306.09;;;1.42;100.00
3142;BME280;1581;51.568;6.998;2023-02-26T05:18:36;101309.94;;;1.60;100.00
3142;BME280;1581;51.568;6.998;2023-02-26T05:21:04;101308.13;;;1.60;100.00
3142;BME280;1581;51.568;6.998;2023-02-26T05:23:32;101310.88;;;1.59;100.00
3142;BME280;1581;51.568;6.998;2023-02-26T05:26:00;101308.72;;;1.42;100.00
3142;BME280;1581;51.568;6.998;2023-02-26T05:28:29;101317.03;;;1.25;100.00
3142;BME280;1581;51.568;6.998;2023-02-26T05:31:00;101318.25;;;1.32;100.00
3142;BME280;1581;51.568;6.998;2023-02-26T05:33:28;101322.91;;;1.50;100.00
3142;BME280;1581;51.568;6.998;2023-02-26T05:35:55;101315.66;;;1.43;100.00
3142;BME280;1581;51.568;6.998;2023-02-26T05:38:24;101324.38;;;1.54;100.00
3142;BME280;1581;51.568;6.998;2023-02-26T05:40:56;101329.78;;;1.74;100.00
3142;BME280;1581;51.568;6.998;2023-02-26T05:43:24;101326.78;;;1.68;100.00
3142;BME280;1581;51.568;6.998;2023-02-26T05:45:52;101334.75;;;1.67;100.00
3142;BME280;1581;51.568;6.998;2023-02-26T05:48:22;101338.59;;;1.63;100.00
3142;BME280;1581;51.568;6.998;2023-02-26T05:50:50;101349.91;;;1.52;100.00
3142;BME280;1581;51.568;6.998;2023-02-26T05:53:18;101338.97;;;1.69;100.00
3142;BME280;1581;51.568;6.998;2023-02-26T05:55:46;101340.97;;;1.55;100.00
3142;BME280;1581;51.568;6.998;2023-02-26T05:58:13;101344.09;;;1.70;100.00
3142;BME280;1581;51.568;6.998;2023-02-26T06:00:41;101353.59;;;1.50;100.00
3142;BME280;1581;51.568;6.998;2023-02-26T06:03:09;101359.09;;;1.47;100.00
3142;BME280;1581;51.568;6.998;2023-02-26T06:05:38;101362.41;;;1.38;100.00
3142;BME280;1581;51.568;6.998;2023-02-26T06:08:06;101366.84;;;1.37;100.00
3142;BME280;1581;51.568;6.998;2023-02-26T06:10:34;101369.75;;;1.56;100.00
3142;BME280;1581;51.568;6.998;2023-02-26T06:13:02;101371.66;;;1.65;100.00
3142;BME280;1581;51.568;6.998;2023-02-26T06:15:29;101380.03;;;1.70;100.00
3142;BME280;1581;51.568;6.998;2023-02-26T06:17:57;101379.66;;;1.53;100.00
3142;BME280;1581;51.568;6.998;2023-02-26T06:20:25;101399.78;;;1.41;100.00
3142;BME280;1581;51.568;6.998;2023-02-26T06:22:54;101393.50;;;1.55;100.00
3142;BME280;1581;51.568;6.998;2023-02-26T06:25:22;101398.41;;;1.59;100.00
3142;BME280;1581;51.568;6.998;2023-02-26T06:27:49;101413.84;;;1.74;100.00
3142;BME280;1581;51.568;6.998;2023-02-26T06:30:18;101414.50;;;1.66;100.00
3142;BME280;1581;51.568;6.998;2023-02-26T06:32:45;101413.28;;;1.48;100.00
3142;BME280;1581;51.568;6.998;2023-02-26T06:35:13;101413.47;;;1.68;100.00
3142;BME280;1581;51.568;6.998;2023-02-26T06:37:41;101422.66;;;1.63;100.00
3142;BME280;1581;51.568;6.998;2023-02-26T06:40:11;101429.94;;;1.59;100.00
3142;BME280;1581;51.568;6.998;2023-02-26T06:42:39;101425.50;;;1.60;100.00
3142;BME280;1581;51.568;6.998;2023-02-26T06:45:08;101434.59;;;1.67;100.00
3142;BME280;1581;51.568;6.998;2023-02-26T06:47:36;101441.28;;;1.70;100.00
3142;BME280;1581;51.568;6.998;2023-02-26T06:50:05;101446.53;;;1.70;100.00
3142;BME280;1581;51.568;6.998;2023-02-26T06:52:33;101447.28;;;1.72;100.00
3142;BME280;1581;51.568;6.998;2023-02-26T06:55:00;101455.22;;;1.60;100.00
3142;BME280;1581;51.568;6.998;2023-02-26T06:57:29;101467.56;;;1.70;100.00
3142;BME280;1581;51.568;6.998;2023-02-26T06:59:58;101467.47;;;1.83;100.00
3142;BME280;1581;51.568;6.998;2023-02-26T07:02:26;101473.97;;;1.67;100.00
3142;BME280;1581;51.568;6.998;2023-02-26T07:04:54;101488.09;;;1.76;100.00
3142;BME280;1581;51.568;6.998;2023-02-26T07:07:21;101474.72;;;1.68;100.00
3142;BME280;1581;51.568;6.998;2023-02-26T07:09:49;101477.84;;;1.73;100.00
3142;BME280;1581;51.568;6.998;2023-02-26T07:12:17;101484.06;;;1.72;100.00
3142;BME280;1581;51.568;6.998;2023-02-26T07:14:46;101480.19;;;1.66;100.00
3142;BME280;1581;51.568;6.998;2023-02-26T07:17:15;101485.22;;;1.68;100.00
3142;BME280;1581;51.568;6.998;2023-02-26T07:19:46;101490.38;;;1.81;100.00
3142;BME280;1581;51.568;6.998;2023-02-26T07:22:15;101492.66;;;1.85;100.00
3142;BME280;1581;51.568;6.998;2023-02-26T07:24:43;101500.56;;;1.85;100.00
3142;BME280;1581;51.568;6.998;2023-02-26T07:27:12;101495.06;;;1.88;100.00
3142;BME280;1581;51.568;6.998;2023-02-26T07:29:39;101495.84;;;2.12;100.00
3142;BME280;1581;51.568;6.998;2023-02-26T07:32:09;101513.84;;;1.95;100.00
3142;BME280;1581;51.568;6.998;2023-02-26T07:34:37;101511.75;;;1.76;100.00
3142;BME280;1581;51.568;6.998;2023-02-26T07:37:04;101510.06;;;1.99;100.00
3142;BME280;1581;51.568;6.998;2023-02-26T07:39:32;101526.44;;;2.13;100.00
3142;BME280;1581;51.568;6.998;2023-02-26T07:42:00;101518.25;;;2.29;100.00
3142;BME280;1581;51.568;6.998;2023-02-26T07:44:28;101515.28;;;2.44;100.00
3142;BME280;1581;51.568;6.998;2023-02-26T07:46:55;101526.09;;;2.18;99.41
3142;BME280;1581;51.568;6.998;2023-02-26T07:49:25;101533.63;;;2.11;99.98
3142;BME280;1581;51.568;6.998;2023-02-26T07:51:53;101533.44;;;2.02;100.00
3142;BME280;1581;51.568;6.998;2023-02-26T07:54:20;101539.72;;;2.23;100.00
3142;BME280;1581;51.568;6.998;2023-02-26T07:56:48;101546.44;;;2.27;100.00
3142;BME280;1581;51.568;6.998;2023-02-26T07:59:16;101556.34;;;2.23;100.00
3142;BME280;1581;51.568;6.998;2023-02-26T08:01:44;101542.38;;;2.34;100.00
3142;BME280;1581;51.568;6.998;2023-02-26T08:04:15;101544.78;;;2.37;99.46
3142;BME280;1581;51.568;6.998;2023-02-26T08:06:45;101548.69;;;2.20;99.35
3142;BME280;1581;51.568;6.998;2023-02-26T08:09:12;101554.84;;;2.53;99.53
3142;BME280;1581;51.568;6.998;2023-02-26T08:11:40;101548.25;;;2.59;99.47
3142;BME280;1581;51.568;6.998;2023-02-26T08:14:09;101556.75;;;2.62;99.30
3142;BME280;1581;51.568;6.998;2023-02-26T08:16:38;101560.94;;;2.76;99.01
3142;BME280;1581;51.568;6.998;2023-02-26T08:19:06;101556.63;;;2.86;98.72
3142;BME280;1581;51.568;6.998;2023-02-26T08:21:34;101564.06;;;2.92;98.41
3142;BME280;1581;51.568;6.998;2023-02-26T08:24:04;101559.53;;;2.94;97.42
3142;BME280;1581;51.568;6.998;2023-02-26T08:26:35;101563.47;;;2.99;97.62
3142;BME280;1581;51.568;6.998;2023-02-26T08:29:03;101571.59;;;3.07;96.54
3142;BME280;1581;51.568;6.998;2023-02-26T08:31:31;101570.53;;;3.10;95.72
3142;BME280;1581;51.568;6.998;2023-02-26T08:34:00;101579.50;;;3.18;94.72
3142;BME280;1581;51.568;6.998;2023-02-26T08:36:28;101579.72;;;3.15;94.79
3142;BME280;1581;51.568;6.998;2023-02-26T08:38:56;101591.44;;;3.22;95.35
3142;BME280;1581;51.568;6.998;2023-02-26T08:41:25;101591.66;;;3.30;93.81
3142;BME280;1581;51.568;6.998;2023-02-26T08:43:55;101603.88;;;3.20;94.15
3142;BME280;1581;51.568;6.998;2023-02-26T08:46:23;101609.28;;;3.30;92.63
3142;BME280;1581;51.568;6.998;2023-02-26T08:48:51;101600.78;;;3.37;92.99
3142;BME280;1581;51.568;6.998;2023-02-26T08:51:20;101601.50;;;3.39;91.85
3142;BME280;1581;51.568;6.998;2023-02-26T08:53:50;101610.59;;;3.35;93.22
3142;BME280;1581;51.568;6.998;2023-02-26T08:56:21;101615.34;;;3.52;91.92
3142;BME280;1581;51.568;6.998;2023-02-26T08:58:51;101617.25;;;3.50;91.07
3142;BME280;1581;51.568;6.998;2023-02-26T09:01:19;101611.16;;;3.49;90.64
3142;BME280;1581;51.568;6.998;2023-02-26T09:03:47;101623.25;;;3.52;90.11
3142;BME280;1581;51.568;6.998;2023-02-26T09:06:14;101627.56;;;3.53;90.36
3142;BME280;1581;51.568;6.998;2023-02-26T09:08:42;101632.06;;;3.73;90.77
3142;BME280;1581;51.568;6.998;2023-02-26T09:11:10;101627.09;;;3.59;89.86
3142;BME280;1581;51.568;6.998;2023-02-26T09:13:38;101633.53;;;3.66;89.73
3142;BME280;1581;51.568;6.998;2023-02-26T09:16:07;101637.69;;;3.79;88.15
3142;BME280;1581;51.568;6.998;2023-02-26T09:18:35;101642.47;;;3.74;88.46
3142;BME280;1581;51.568;6.998;2023-02-26T09:21:03;101644.41;;;3.83;87.26
3142;BME280;1581;51.568;6.998;2023-02-26T09:23:31;101643.53;;;3.94;87.68
3142;BME280;1581;51.568;6.998;2023-02-26T09:25:59;101643.50;;;4.05;87.30
3142;BME280;1581;51.568;6.998;2023-02-26T09:28:27;101654.56;;;3.88;86.12
3142;BME280;1581;51.568;6.998;2023-02-26T09:30:55;101662.53;;;4.08;85.53
3142;BME280;1581;51.568;6.998;2023-02-26T09:33:25;101656.28;;;4.09;85.70
3142;BME280;1581;51.568;6.998;2023-02-26T09:35:53;101653.53;;;4.11;83.44
3142;BME280;1581;51.568;6.998;2023-02-26T09:38:21;101669.91;;;4.25;81.98
3142;BME280;1581;51.568;6.998;2023-02-26T09:40:53;101670.41;;;4.19;80.57
3142;BME280;1581;51.568;6.998;2023-02-26T09:44:04;101669.84;;;4.36;79.54
3142;BME280;1581;51.568;6.998;2023-02-26T09:46:44;101671.56;;;4.57;78.44
3142;BME280;1581;51.568;6.998;2023-02-26T09:49:31;101682.69;;;4.61;77.01
3142;BME280;1581;51.568;6.998;2023-02-26T09:52:17;101690.72;;;4.59;76.92
3142;BME280;1581;51.568;6.998;2023-02-26T09:54:52;101689.84;;;4.90;76.58
3142;BME280;1581;51.568;6.998;2023-02-26T09:57:29;101676.56;;;5.01;74.15
3142;BME280;1581;51.568;6.998;2023-02-26T09:59:57;101690.47;;;5.03;74.95
3142;BME280;1581;51.568;6.998;2023-02-26T10:02:37;101694.22;;;5.01;73.53
3142;BME280;1581;51.568;6.998;2023-02-26T10:05:18;101692.69;;;4.98;73.16
3142;BME280;1581;51.568;6.998;2023-02-26T10:07:54;101697.97;;;4.98;70.95
3142;BME280;1581;51.568;6.998;2023-02-26T10:10:34;101693.97;;;5.04;72.92
3142;BME280;1581;51.568;6.998;2023-02-26T10:13:04;101695.44;;;5.17;73.08
3142;BME280;1581;51.568;6.998;2023-02-26T10:15:38;101702.31;;;5.68;70.91
3142;BME280;1581;51.568;6.998;2023-02-26T10:18:11;101704.81;;;5.60;66.91
3142;BME280;1581;51.568;6.998;2023-02-26T10:20:58;101703.84;;;5.61;65.83
3142;BME280;1581;51.568;6.998;2023-02-26T10:23:36;101698.56;;;5.61;65.95
3142;BME280;1581;51.568;6.998;2023-02-26T10:26:12;101704.41;;;5.74;67.16
3142;BME280;1581;51.568;6.998;2023-02-26T10:28:57;101706.84;;;5.47;66.63
3142;BME280;1581;51.568;6.998;2023-02-26T10:31:32;101710.97;;;5.70;67.09
3142;BME280;1581;51.568;6.998;2023-02-26T10:34:22;101722.19;;;5.63;64.90
3142;BME280;1581;51.568;6.998;2023-02-26T10:37:02;101723.50;;;6.17;66.39
3142;BME280;1581;51.568;6.998;2023-02-26T10:39:40;101725.75;;;6.12;66.09
3142;BME280;1581;51.568;6.998;2023-02-26T10:42:16;101719.78;;;6.38;64.17
3142;BME280;1581;51.568;6.998;2023-02-26T10:44:57;101723.25;;;6.29;62.59
3142;BME280;1581;51.568;6.998;2023-02-26T10:47:36;101733.69;;;6.12;60.28
3142;BME280;1581;51.568;6.998;2023-02-26T10:50:10;101727.94;;;6.07;61.67
3142;BME280;1581;51.568;6.998;2023-02-26T10:52:43;101729.88;;;5.66;59.46
3142;BME280;1581;51.568;6.998;2023-02-26T10:55:34;101731.03;;;6.12;60.43
3142;BME280;1581;51.568;6.998;2023-02-26T10:58:10;101737.19;;;6.31;59.58
3142;BME280;1581;51.568;6.998;2023-02-26T11:00:41;101737.47;;;6.38;56.75
3142;BME280;1581;51.568;6.998;2023-02-26T11:03:15;101740.00;;;6.68;55.88
3142;BME280;1581;51.568;6.998;2023-02-26T11:05:44;101753.38;;;6.85;56.21
3142;BME280;1581;51.568;6.998;2023-02-26T11:08:20;101759.09;;;6.71;53.10
3142;BME280;1581;51.568;6.998;2023-02-26T11:10:53;101756.31;;;6.63;52.74
3142;BME280;1581;51.568;6.998;2023-02-26T11:13:23;101754.19;;;6.85;52.18
3142;BME280;1581;51.568;6.998;2023-02-26T11:15:53;101751.69;;;6.46;50.11
3142;BME280;1581;51.568;6.998;2023-02-26T11:18:27;101757.56;;;6.50;49.19
3142;BME280;1581;51.568;6.998;2023-02-26T11:20:58;101766.78;;;6.83;50.41
3142;BME280;1581;51.568;6.998;2023-02-26T11:23:30;101752.81;;;7.00;51.47
3142;BME280;1581;51.568;6.998;2023-02-26T11:26:03;101756.53;;;7.72;50.38
3142;BME280;1581;51.568;6.998;2023-02-26T11:28:36;101755.41;;;7.65;46.48
3142;BME280;1581;51.568;6.998;2023-02-26T11:31:13;101761.47;;;8.21;49.33
3142;BME280;1581;51.568;6.998;2023-02-26T11:36:57;101758.34;;;8.69;46.63
3142;BME280;1581;51.568;6.998;2023-02-26T11:39:37;101752.41;;;8.75;46.64
3142;BME280;1581;51.568;6.998;2023-02-26T11:42:10;101754.84;;;8.69;45.98
3142;BME280;1581;51.568;6.998;2023-02-26T11:44:45;101744.13;;;8.44;45.91
3142;BME280;1581;51.568;6.998;2023-02-26T11:47:20;101746.00;;;8.34;46.86
3142;BME280;1581;51.568;6.998;2023-02-26T11:49:59;101742.16;;;8.46;47.10
3142;BME280;1581;51.568;6.998;2023-02-26T11:52:35;101731.38;;;8.64;47.22
3142;BME280;1581;51.568;6.998;2023-02-26T11:55:28;101743.31;;;8.78;45.48
3142;BME280;1581;51.568;6.998;2023-02-26T11:58:19;101743.50;;;8.32;43.53
3142;BME280;1581;51.568;6.998;2023-02-26T12:00:57;101742.22;;;8.09;45.02
3142;BME280;1581;51.568;6.998;2023-02-26T12:03:31;101754.78;;;7.54;46.17
3142;BME280;1581;51.568;6.998;2023-02-26T12:06:01;101752.38;;;7.60;46.57
3142;BME280;1581;51.568;6.998;2023-02-26T12:08:33;101746.03;;;7.34;45.60
3142;BME280;1581;51.568;6.998;2023-02-26T12:11:37;101735.19;;;7.18;47.04
3142;BME280;1581;51.568;6.998;2023-02-26T12:14:30;101749.00;;;7.22;47.19
3142;BME280;1581;51.568;6.998;2023-02-26T12:17:17;101740.38;;;7.01;47.52
3142;BME280;1581;51.568;6.998;2023-02-26T12:19:54;101738.03;;;6.98;47.75
3142;BME280;1581;51.568;6.998;2023-02-26T12:22:50;101735.16;;;7.37;47.17
3142;BME280;1581;51.568;6.998;2023-02-26T12:25:58;101739.41;;;7.57;47.10
3142;BME280;1581;51.568;6.998;2023-02-26T12:28:56;101741.88;;;7.95;46.47
3142;BME280;1581;51.568;6.998;2023-02-26T12:32:14;101745.63;;;8.02;46.05
3142;BME280;1581;51.568;6.998;2023-02-26T12:35:20;101750.88;;;8.11;45.81
3142;BME280;1581;51.568;6.998;2023-02-26T12:38:07;101748.53;;;8.08;44.08
3142;BME280;1581;51.568;6.998;2023-02-26T12:44:33;101746.28;;;8.75;44.76
3142;BME280;1581;51.568;6.998;2023-02-26T12:47:40;101746.72;;;8.70;44.33
3142;BME280;1581;51.568;6.998;2023-02-26T12:50:45;101742.09;;;8.72;44.89
3142;BME280;1581;51.568;6.998;2023-02-26T12:53:55;101745.34;;;8.49;44.52
3142;BME280;1581;51.568;6.998;2023-02-26T12:56:55;101743.59;;;8.40;44.37
3142;BME280;1581;51.568;6.998;2023-02-26T12:59:56;101743.69;;;8.65;44.69
3142;BME280;1581;51.568;6.998;2023-02-26T13:06:21;101746.09;;;8.76;43.63
3142;BME280;1581;51.568;6.998;2023-02-26T13:09:01;101741.94;;;8.56;43.56
3142;BME280;1581;51.568;6.998;2023-02-26T13:11:49;101753.31;;;8.49;42.37
3142;BME280;1581;51.568;6.998;2023-02-26T13:14:40;101743.44;;;8.24;41.98
3142;BME280;1581;51.568;6.998;2023-02-26T13:17:24;101757.88;;;7.85;43.45
3142;BME280;1581;51.568;6.998;2023-02-26T13:19:57;101754.63;;;7.55;43.23
3142;BME280;1581;51.568;6.998;2023-02-26T13:22:31;101757.41;;;7.63;43.60
3142;BME280;1581;51.568;6.998;2023-02-26T13:25:04;101756.88;;;7.86;44.44
3142;BME280;1581;51.568;6.998;2023-02-26T13:27:39;101751.75;;;8.02;43.85
3142;BME280;1581;51.568;6.998;2023-02-26T13:30:21;101748.66;;;8.34;43.47
3142;BME280;1581;51.568;6.998;2023-02-26T13:32:55;101745.00;;;8.61;43.43
3142;BME280;1581;51.568;6.998;2023-02-26T13:35:28;101744.91;;;8.88;42.94
3142;BME280;1581;51.568;6.998;2023-02-26T13:38:01;101755.16;;;9.51;42.01
3142;BME280;1581;51.568;6.998;2023-02-26T13:40:45;101753.19;;;9.28;41.43
3142;BME280;1581;51.568;6.998;2023-02-26T13:43:34;101742.06;;;9.58;41.21
3142;BME280;1581;51.568;6.998;2023-02-26T13:46:25;101744.88;;;9.90;40.52
3142;BME280;1581;51.568;6.998;2023-02-26T13:49:03;101744.09;;;10.38;40.43
3142;BME280;1581;51.568;6.998;2023-02-26T13:51:39;101743.31;;;9.79;40.37
3142;BME280;1581;51.568;6.998;2023-02-26T13:57:36;101741.81;;;9.43;41.51
3142;BME280;1581;51.568;6.998;2023-02-26T14:00:26;101732.63;;;9.63;39.92
3142;BME280;1581;51.568;6.998;2023-02-26T14:02:57;101736.72;;;10.25;39.76
3142;BME280;1581;51.568;6.998;2023-02-26T14:05:54;101749.16;;;16.80;31.63
3142;BME280;1581;51.568;6.998;2023-02-26T14:08:45;101774.81;;;24.01;23.54
3142;BME280;1581;51.568;6.998;2023-02-26T14:11:42;101794.88;;;29.14;18.43